Time,TemperatureF,DewpointF,PressureIn,WindDirection,WindDirectionDegrees,WindSpeedMPH,WindSpeedGustMPH,Humidity,HourlyPrecipIn,Conditions,Clouds,dailyrainin,SoftwareType,DateUTC
2013-02-17 00:00:00,33.9,31.8,30.21,SE,131,0.0,0.0,92,0.00,,,0.00,Wunderground v.1.15,2013-02-17 00:00:00,
2013-02-17 00:10:00,33.4,31.3,30.21,SE,132,0.0,0.0,92,0.00,,,0.00,Wunderground v.1.15,2013-02-17 00:10:00,
2013-02-17 00:20:00,33.1,31.3,30.21,SE,132,0.0,0.0,93,0.00,,,0.00,Wunderground v.1.15,2013-02-17 00:20:00,
2013-02-17 00:30:00,32.8,31.0,30.21,SE,133,0.0,0.0,93,0.00,,,0.00,Wunderground v.1.15,2013-02-17 00:30:00,
2013-02-17 00:40:00,32.5,30.7,30.20,SE,132,0.0,0.0,93,0.00,,,0.00,Wunderground v.1.15,2013-02-17 00:40:00,
2013-02-17 00:45:00,32.4,30.6,30.21,SE,132,0.0,0.0,93,0.00,,,0.00,Wunderground v.1.15,2013-02-17 00:45:00,
2013-02-17 00:55:00,32.1,30.3,30.21,SE,132,0.0,0.0,93,0.00,,,0.00,Wunderground v.1.15,2013-02-17 00:55:00,
2013-02-17 01:00:00,31.9,30.1,30.21,SE,132,0.0,0.0,93,0.00,,,0.00,Wunderground v.1.15,2013-02-17 01:00:00,
2013-02-17 01:10:00,31.5,29.7,30.20,SE,130,0.0,0.0,93,0.00,,,0.00,Wunderground v.1.15,2013-02-17 01:10:00,
2013-02-17 01:20:00,31.2,29.7,30.20,SE,130,0.0,0.0,94,0.00,,,0.00,Wunderground v.1.15,2013-02-17 01:20:00,
2013-02-17 01:30:00,31.1,29.6,30.20,SE,131,0.0,0.0,94,0.00,,,0.00,Wunderground v.1.15,2013-02-17 01:30:00,
2013-02-17 01:40:00,31.0,29.7,30.20,NE,46,0.0,0.0,95,0.00,,,0.00,Wunderground v.1.15,2013-02-17 01:40:00,
2013-02-17 01:50:00,31.0,29.7,30.20,NE,45,0.0,0.0,95,0.00,,,0.00,Wunderground v.1.15,2013-02-17 01:50:00,
2013-02-17 02:00:00,30.8,29.5,30.20,NE,46,0.0,0.0,95,0.00,,,0.00,Wunderground v.1.15,2013-02-17 02:00:00,
2013-02-17 02:10:00,30.6,29.1,30.20,NE,47,0.0,0.0,94,0.00,,,0.00,Wunderground v.1.15,2013-02-17 02:10:00,
2013-02-17 02:20:00,30.4,29.1,30.19,NE,46,0.0,0.0,95,0.00,,,0.00,Wunderground v.1.15,2013-02-17 02:20:00,
2013-02-17 02:30:00,30.2,28.9,30.19,NE,46,0.0,0.0,95,0.00,,,0.00,Wunderground v.1.15,2013-02-17 02:30:00,
2013-02-17 02:40:00,30.0,28.7,30.19,NE,46,0.0,0.0,95,0.00,,,0.00,Wunderground v.1.15,2013-02-17 02:40:00,
2013-02-17 02:45:00,30.0,28.7,30.19,NE,47,0.0,0.0,95,0.00,,,0.00,Wunderground v.1.15,2013-02-17 02:45:00,
2013-02-17 02:55:00,29.9,28.6,30.19,NE,46,0.0,0.0,95,0.00,,,0.00,Wunderground v.1.15,2013-02-17 02:55:00,
2013-02-17 03:00:00,29.9,28.6,30.19,NE,47,0.0,0.0,95,0.00,,,0.00,Wunderground v.1.15,2013-02-17 03:00:00,
2013-02-17 03:10:00,29.8,28.5,30.18,NE,46,0.0,0.0,95,0.00,,,0.00,Wunderground v.1.15,2013-02-17 03:10:00,
2013-02-17 03:20:00,29.6,28.3,30.18,NE,46,0.0,0.0,95,0.00,,,0.00,Wunderground v.1.15,2013-02-17 03:20:00,
2013-02-17 03:30:00,29.4,28.1,30.18,NE,46,0.0,0.0,95,0.00,,,0.00,Wunderground v.1.15,2013-02-17 03:30:00,
2013-02-17 03:40:00,29.4,28.1,30.18,NE,47,0.0,0.0,95,0.00,,,0.00,Wunderground v.1.15,2013-02-17 03:40:00,
2013-02-17 03:50:00,29.3,28.3,30.18,NE,47,0.0,0.0,96,0.00,,,0.00,Wunderground v.1.15,2013-02-17 03:50:00,
2013-02-17 04:00:00,29.3,28.3,30.18,NE,47,0.0,0.0,96,0.00,,,0.00,Wunderground v.1.15,2013-02-17 04:00:00,
2013-02-17 04:10:00,29.3,28.3,30.18,NE,47,0.0,0.0,96,0.00,,,0.00,Wunderground v.1.15,2013-02-17 04:10:00,
2013-02-17 04:15:00,29.4,28.4,30.18,NE,47,0.0,0.0,96,0.00,,,0.00,Wunderground v.1.15,2013-02-17 04:15:00,
2013-02-17 04:25:00,29.3,28.3,30.18,NE,47,0.0,0.0,96,0.00,,,0.00,Wunderground v.1.15,2013-02-17 04:25:00,
2013-02-17 04:30:00,29.1,28.1,30.18,NE,47,0.0,0.0,96,0.00,,,0.00,Wunderground v.1.15,2013-02-17 04:30:00,
2013-02-17 04:40:00,29.0,28.0,30.18,NE,47,0.0,0.0,96,0.00,,,0.00,Wunderground v.1.15,2013-02-17 04:40:00,
2013-02-17 04:45:00,28.9,27.9,30.18,NE,47,0.0,0.0,96,0.00,,,0.00,Wunderground v.1.15,2013-02-17 04:45:00,
2013-02-17 04:55:00,28.9,27.9,30.18,NE,47,0.0,0.0,96,0.00,,,0.00,Wunderground v.1.15,2013-02-17 04:55:00,
2013-02-17 05:00:00,28.9,27.9,30.18,NE,47,0.0,0.0,96,0.00,,,0.00,Wunderground v.1.15,2013-02-17 05:00:00,
2013-02-17 05:10:00,28.9,27.9,30.18,NE,47,0.0,0.0,96,0.00,,,0.00,Wunderground v.1.15,2013-02-17 05:10:00,
2013-02-17 05:15:00,28.9,27.9,30.18,NE,47,0.0,0.0,96,0.00,,,0.00,Wunderground v.1.15,2013-02-17 05:15:00,
2013-02-17 05:20:00,28.8,27.8,30.18,NE,47,0.0,0.0,96,0.00,,,0.00,Wunderground v.1.15,2013-02-17 05:20:00,
2013-02-17 05:25:00,28.7,27.7,30.18,NE,47,0.0,0.0,96,0.00,,,0.00,Wunderground v.1.15,2013-02-17 05:25:00,
2013-02-17 05:30:00,28.7,27.7,30.18,NE,47,0.0,0.0,96,0.00,,,0.00,Wunderground v.1.15,2013-02-17 05:30:00,
2013-02-17 05:40:00,28.6,27.6,30.18,NE,47,0.0,0.0,96,0.00,,,0.00,Wunderground v.1.15,2013-02-17 05:40:00,
2013-02-17 05:50:00,28.5,27.5,30.18,NE,47,0.0,0.0,96,0.00,,,0.00,Wunderground v.1.15,2013-02-17 05:50:00,
2013-02-17 05:55:00,28.5,27.5,30.18,NE,47,0.0,0.0,96,0.00,,,0.00,Wunderground v.1.15,2013-02-17 05:55:00,
2013-02-17 06:00:00,28.4,27.4,30.18,NE,46,0.0,0.0,96,0.00,,,0.00,Wunderground v.1.15,2013-02-17 06:00:00,
2013-02-17 06:10:00,28.3,27.3,30.18,NE,47,0.0,0.0,96,0.00,,,0.00,Wunderground v.1.15,2013-02-17 06:10:00,
2013-02-17 06:20:00,28.3,27.3,30.18,NE,47,0.0,0.0,96,0.00,,,0.00,Wunderground v.1.15,2013-02-17 06:20:00,
2013-02-17 06:30:00,28.3,27.3,30.18,NE,47,0.0,0.0,96,0.00,,,0.00,Wunderground v.1.15,2013-02-17 06:30:00,
2013-02-17 06:40:00,28.3,27.3,30.19,NE,47,0.0,0.0,96,0.00,,,0.00,Wunderground v.1.15,2013-02-17 06:40:00,
2013-02-17 06:45:00,28.3,27.3,30.19,NE,47,0.0,0.0,96,0.00,,,0.00,Wunderground v.1.15,2013-02-17 06:45:00,
2013-02-17 06:55:00,28.7,28.0,30.19,NE,47,0.0,0.0,97,0.00,,,0.00,Wunderground v.1.15,2013-02-17 06:55:00,
2013-02-17 07:00:00,28.9,28.2,30.19,NE,47,0.0,0.0,97,0.00,,,0.00,Wunderground v.1.15,2013-02-17 07:00:00,
2013-02-17 07:10:00,29.3,28.6,30.19,NE,47,0.0,0.0,97,0.00,,,0.00,Wunderground v.1.15,2013-02-17 07:10:00,
2013-02-17 07:20:00,29.6,28.9,30.19,NE,47,0.0,0.0,97,0.00,,,0.00,Wunderground v.1.15,2013-02-17 07:20:00,
2013-02-17 07:30:00,29.8,29.1,30.19,NE,47,0.0,0.0,97,0.00,,,0.00,Wunderground v.1.15,2013-02-17 07:30:00,
2013-02-17 07:40:00,30.1,29.4,30.19,NE,47,0.0,0.0,97,0.00,,,0.00,Wunderground v.1.15,2013-02-17 07:40:00,
2013-02-17 07:50:00,30.6,29.9,30.19,NE,47,0.0,0.0,97,0.00,,,0.00,Wunderground v.1.15,2013-02-17 07:50:00,
2013-02-17 07:55:00,30.8,30.0,30.19,NE,47,0.0,0.0,97,0.00,,,0.00,Wunderground v.1.15,2013-02-17 07:55:00,
2013-02-17 08:00:00,31.0,30.2,30.19,NE,47,0.0,0.0,97,0.00,,,0.00,Wunderground v.1.15,2013-02-17 08:00:00,
2013-02-17 08:10:00,31.5,30.7,30.19,NE,46,0.0,0.0,97,0.00,,,0.00,Wunderground v.1.15,2013-02-17 08:10:00,
2013-02-17 08:20:00,31.9,31.4,30.19,NE,54,0.0,0.0,98,0.00,,,0.00,Wunderground v.1.15,2013-02-17 08:20:00,
2013-02-17 08:30:00,32.5,32.0,30.19,ENE,65,0.0,0.0,98,0.00,,,0.00,Wunderground v.1.15,2013-02-17 08:30:00,
2013-02-17 08:39:00,33.2,32.7,30.19,East,90,0.0,0.0,98,0.00,,,0.00,Wunderground v.1.15,2013-02-17 08:39:00,
2013-02-17 08:45:00,33.8,33.3,30.19,East,88,0.0,0.0,98,0.00,,,0.00,Wunderground v.1.15,2013-02-17 08:45:00,
2013-02-17 08:54:00,34.6,34.1,30.19,ESE,119,0.0,0.0,98,0.00,,,0.00,Wunderground v.1.15,2013-02-17 08:54:00,
2013-02-17 09:00:00,34.9,34.4,30.19,East,90,0.0,0.0,98,0.00,,,0.00,Wunderground v.1.15,2013-02-17 09:00:00,
2013-02-17 09:10:00,35.4,34.9,30.19,East,88,0.0,0.0,98,0.00,,,0.00,Wunderground v.1.15,2013-02-17 09:10:00,
2013-02-17 09:19:00,35.8,35.3,30.20,East,80,0.0,0.0,98,0.00,,,0.00,Wunderground v.1.15,2013-02-17 09:19:00,
2013-02-17 09:25:00,36.0,35.5,30.20,East,90,0.0,0.0,98,0.00,,,0.00,Wunderground v.1.15,2013-02-17 09:25:00,
2013-02-17 09:30:00,36.1,35.6,30.20,East,83,0.0,0.0,98,0.00,,,0.00,Wunderground v.1.15,2013-02-17 09:30:00,
2013-02-17 09:40:00,36.3,35.8,30.20,East,92,0.0,0.0,98,0.00,,,0.00,Wunderground v.1.15,2013-02-17 09:40:00,
2013-02-17 09:45:00,36.4,35.9,30.19,ENE,72,0.0,0.0,98,0.00,,,0.00,Wunderground v.1.15,2013-02-17 09:45:00,
2013-02-17 09:55:00,36.5,36.0,30.19,East,82,0.0,0.0,98,0.00,,,0.00,Wunderground v.1.15,2013-02-17 09:55:00,
2013-02-17 10:00:00,36.6,36.1,30.19,East,84,0.0,0.0,98,0.00,,,0.00,Wunderground v.1.15,2013-02-17 10:00:00,
2013-02-17 10:09:00,36.8,36.3,30.19,East,90,0.0,0.0,98,0.00,,,0.00,Wunderground v.1.15,2013-02-17 10:09:00,
2013-02-17 10:19:00,37.0,36.5,30.19,East,83,0.0,0.0,98,0.00,,,0.00,Wunderground v.1.15,2013-02-17 10:19:00,
2013-02-17 10:24:00,37.1,36.6,30.19,ENE,75,0.0,0.0,98,0.00,,,0.00,Wunderground v.1.15,2013-02-17 10:24:00,
2013-02-17 10:30:00,37.3,36.8,30.19,ESE,108,0.0,0.0,98,0.00,,,0.00,Wunderground v.1.15,2013-02-17 10:30:00,
2013-02-17 10:39:00,37.6,37.1,30.19,ENE,76,0.0,0.0,98,0.00,,,0.00,Wunderground v.1.15,2013-02-17 10:39:00,
2013-02-17 10:45:00,38.3,37.8,30.19,East,96,0.0,0.0,98,0.00,,,0.00,Wunderground v.1.15,2013-02-17 10:45:00,
2013-02-17 10:54:00,39.1,38.6,30.19,East,97,0.0,0.0,98,0.00,,,0.00,Wunderground v.1.15,2013-02-17 10:54:00,
2013-02-17 11:00:00,39.2,38.7,30.19,East,84,0.0,0.0,98,0.00,,,0.00,Wunderground v.1.15,2013-02-17 11:00:00,
2013-02-17 11:09:00,40.4,39.9,30.19,East,98,0.0,0.0,98,0.00,,,0.00,Wunderground v.1.15,2013-02-17 11:09:00,
2013-02-17 11:20:00,41.3,40.5,30.18,East,88,0.0,0.0,97,0.00,,,0.00,Wunderground v.1.15,2013-02-17 11:20:00,
2013-02-17 11:30:00,42.5,40.6,30.18,ENE,67,0.0,0.0,93,0.00,,,0.00,Wunderground v.1.15,2013-02-17 11:30:00,
2013-02-17 11:39:00,43.5,40.5,30.18,SE,127,0.0,0.0,89,0.00,,,0.00,Wunderground v.1.15,2013-02-17 11:39:00,
2013-02-17 11:44:00,44.1,40.8,30.18,NE,51,0.0,0.0,88,0.00,,,0.00,Wunderground v.1.15,2013-02-17 11:44:00,
2013-02-17 11:54:00,45.0,40.5,30.18,ESE,102,0.0,0.0,84,0.00,,,0.00,Wunderground v.1.15,2013-02-17 11:54:00,
2013-02-17 12:00:00,45.3,40.4,30.17,ENE,78,0.0,0.0,83,0.00,,,0.00,Wunderground v.1.15,2013-02-17 12:00:00,
2013-02-17 12:09:00,45.9,40.1,30.17,East,91,0.0,0.0,80,0.00,,,0.00,Wunderground v.1.15,2013-02-17 12:09:00,
2013-02-17 12:14:00,45.9,40.1,30.16,ESE,120,0.0,0.0,80,0.00,,,0.00,Wunderground v.1.15,2013-02-17 12:14:00,
2013-02-17 12:24:00,46.2,39.1,30.16,ESE,105,0.0,0.0,76,0.00,,,0.00,Wunderground v.1.15,2013-02-17 12:24:00,
2013-02-17 12:29:00,46.3,39.1,30.16,East,87,0.0,0.0,76,0.00,,,0.00,Wunderground v.1.15,2013-02-17 12:29:00,
2013-02-17 12:39:00,46.9,37.6,30.16,East,92,0.0,0.0,70,0.00,,,0.00,Wunderground v.1.15,2013-02-17 12:39:00,
2013-02-17 12:45:00,47.2,35.2,30.16,ESE,107,0.0,0.0,63,0.00,,,0.00,Wunderground v.1.15,2013-02-17 12:45:00,
2013-02-17 12:54:00,46.9,34.1,30.15,ESE,117,0.0,0.0,61,0.00,,,0.00,Wunderground v.1.15,2013-02-17 12:54:00,
2013-02-17 13:00:00,46.8,34.9,30.15,ESE,103,0.0,0.0,63,0.00,,,0.00,Wunderground v.1.15,2013-02-17 13:00:00,
2013-02-17 13:09:00,47.3,33.7,30.14,SSE,161,0.0,0.0,59,0.00,,,0.00,Wunderground v.1.15,2013-02-17 13:09:00,
2013-02-17 13:19:00,47.7,32.8,30.15,SE,130,0.0,0.0,56,0.00,,,0.00,Wunderground v.1.15,2013-02-17 13:19:00,
2013-02-17 13:24:00,47.8,32.9,30.14,SE,128,0.0,0.0,56,0.00,,,0.00,Wunderground v.1.15,2013-02-17 13:24:00,
2013-02-17 13:30:00,47.8,34.2,30.14,East,96,0.0,0.0,59,0.00,,,0.00,Wunderground v.1.15,2013-02-17 13:30:00,
2013-02-17 13:39:00,48.5,33.1,30.14,East,85,0.0,0.0,55,0.00,,,0.00,Wunderground v.1.15,2013-02-17 13:39:00,
2013-02-17 13:44:00,48.6,33.1,30.14,SE,142,0.0,0.0,55,0.00,,,0.00,Wunderground v.1.15,2013-02-17 13:44:00,
2013-02-17 13:54:00,48.4,32.0,30.13,SE,127,0.0,0.0,53,0.00,,,0.00,Wunderground v.1.15,2013-02-17 13:54:00,
2013-02-17 13:59:00,48.4,32.5,30.13,ESE,117,0.0,0.0,54,0.00,,,0.00,Wunderground v.1.15,2013-02-17 13:59:00,
2013-02-17 14:09:00,48.4,32.0,30.13,ESE,119,0.0,0.0,53,0.00,,,0.00,Wunderground v.1.15,2013-02-17 14:09:00,
2013-02-17 14:19:00,48.5,33.1,30.12,East,94,0.0,0.0,55,0.00,,,0.00,Wunderground v.1.15,2013-02-17 14:19:00,
2013-02-17 14:24:00,48.6,33.1,30.12,SE,126,0.0,0.0,55,0.00,,,0.00,Wunderground v.1.15,2013-02-17 14:24:00,
2013-02-17 14:30:00,48.5,32.6,30.12,ESE,113,0.0,0.0,54,0.00,,,0.00,Wunderground v.1.15,2013-02-17 14:30:00,
2013-02-17 14:39:00,48.5,32.6,30.12,East,82,0.0,0.0,54,0.00,,,0.00,Wunderground v.1.15,2013-02-17 14:39:00,
2013-02-17 14:44:00,48.1,32.2,30.12,ESE,117,0.0,0.0,54,0.00,,,0.00,Wunderground v.1.15,2013-02-17 14:44:00,
2013-02-17 14:54:00,47.8,32.9,30.12,SE,132,0.0,0.0,56,0.00,,,0.00,Wunderground v.1.15,2013-02-17 14:54:00,
2013-02-17 14:59:00,47.8,32.9,30.12,East,84,0.0,0.0,56,0.00,,,0.00,Wunderground v.1.15,2013-02-17 14:59:00,
2013-02-17 15:09:00,47.8,33.3,30.12,East,98,0.0,0.0,57,0.00,,,0.00,Wunderground v.1.15,2013-02-17 15:09:00,
2013-02-17 15:19:00,47.4,33.4,30.11,ESE,113,0.0,0.0,58,0.00,,,0.00,Wunderground v.1.15,2013-02-17 15:19:00,
2013-02-17 15:24:00,47.1,33.1,30.11,East,98,0.0,0.0,58,0.00,,,0.00,Wunderground v.1.15,2013-02-17 15:24:00,
2013-02-17 15:30:00,46.8,33.2,30.11,ESE,105,0.0,0.0,59,0.00,,,0.00,Wunderground v.1.15,2013-02-17 15:30:00,
2013-02-17 15:39:00,46.2,33.5,30.11,East,90,0.0,0.0,61,0.00,,,0.00,Wunderground v.1.15,2013-02-17 15:39:00,
2013-02-17 15:44:00,46.1,33.4,30.11,East,85,0.0,0.0,61,0.00,,,0.00,Wunderground v.1.15,2013-02-17 15:44:00,
2013-02-17 15:54:00,46.0,33.7,30.11,ESE,103,0.0,0.0,62,0.00,,,0.00,Wunderground v.1.15,2013-02-17 15:54:00,
2013-02-17 15:59:00,45.8,33.5,30.11,ESE,106,0.0,0.0,62,0.00,,,0.00,Wunderground v.1.15,2013-02-17 15:59:00,
2013-02-17 16:09:00,45.3,33.0,30.10,East,101,0.0,0.0,62,0.00,,,0.00,Wunderground v.1.15,2013-02-17 16:09:00,
2013-02-17 16:14:00,45.2,32.9,30.10,East,86,0.0,0.0,62,0.00,,,0.00,Wunderground v.1.15,2013-02-17 16:14:00,
2013-02-17 16:24:00,45.0,33.2,30.10,East,96,0.0,0.0,63,0.00,,,0.00,Wunderground v.1.15,2013-02-17 16:24:00,
2013-02-17 16:29:00,44.8,33.4,30.10,East,84,0.0,0.0,64,0.00,,,0.00,Wunderground v.1.15,2013-02-17 16:29:00,
2013-02-17 16:39:00,44.5,32.7,30.10,East,96,0.0,0.0,63,0.00,,,0.00,Wunderground v.1.15,2013-02-17 16:39:00,
2013-02-17 16:44:00,44.4,33.0,30.10,East,98,0.0,0.0,64,0.00,,,0.00,Wunderground v.1.15,2013-02-17 16:44:00,
2013-02-17 16:54:00,44.2,35.0,30.10,NE,50,0.0,0.0,70,0.00,,,0.00,Wunderground v.1.15,2013-02-17 16:54:00,
2013-02-17 16:59:00,44.3,36.9,30.10,East,86,0.0,0.0,75,0.00,,,0.00,Wunderground v.1.15,2013-02-17 16:59:00,
2013-02-17 17:09:00,44.3,37.9,30.10,ENE,66,0.0,0.0,78,0.00,,,0.00,Wunderground v.1.15,2013-02-17 17:09:00,
2013-02-17 17:14:00,44.2,38.1,30.10,ENE,78,0.0,0.0,79,0.00,,,0.00,Wunderground v.1.15,2013-02-17 17:14:00,
2013-02-17 17:24:00,43.8,38.0,30.11,East,97,0.0,0.0,80,0.00,,,0.00,Wunderground v.1.15,2013-02-17 17:24:00,
2013-02-17 17:29:00,43.6,38.2,30.11,East,82,0.0,0.0,81,0.00,,,0.00,Wunderground v.1.15,2013-02-17 17:29:00,
2013-02-17 17:39:00,43.1,38.0,30.11,ENE,67,0.0,0.0,82,0.00,,,0.00,Wunderground v.1.15,2013-02-17 17:39:00,
2013-02-17 17:49:00,42.5,37.7,30.11,ENE,70,0.0,0.0,83,0.00,,,0.00,Wunderground v.1.15,2013-02-17 17:49:00,
2013-02-17 17:59:00,41.9,37.7,30.11,ENE,62,0.0,0.0,85,0.00,,,0.00,Wunderground v.1.15,2013-02-17 17:59:00,
2013-02-17 18:09:00,41.3,37.4,30.11,ENE,69,0.0,0.0,86,0.00,,,0.00,Wunderground v.1.15,2013-02-17 18:09:00,
2013-02-17 18:19:00,40.8,37.2,30.12,ENE,75,0.0,0.0,87,0.00,,,0.00,Wunderground v.1.15,2013-02-17 18:19:00,
2013-02-17 18:24:00,40.5,36.9,30.12,ENE,69,0.0,0.0,87,0.00,,,0.00,Wunderground v.1.15,2013-02-17 18:24:00,
2013-02-17 18:29:00,40.2,36.9,30.12,ENE,75,0.0,0.0,88,0.00,,,0.00,Wunderground v.1.15,2013-02-17 18:29:00,
2013-02-17 18:39:00,39.8,36.8,30.12,East,94,0.0,0.0,89,0.00,,,0.00,Wunderground v.1.15,2013-02-17 18:39:00,
2013-02-17 18:44:00,39.5,36.5,30.12,ENE,78,0.0,0.0,89,0.00,,,0.00,Wunderground v.1.15,2013-02-17 18:44:00,
2013-02-17 18:54:00,39.1,36.4,30.12,NE,53,0.0,0.0,90,0.00,,,0.00,Wunderground v.1.15,2013-02-17 18:54:00,
2013-02-17 18:59:00,38.8,36.1,30.12,ENE,57,0.0,0.0,90,0.00,,,0.00,Wunderground v.1.15,2013-02-17 18:59:00,
2013-02-17 19:09:00,38.4,36.0,30.12,ENE,59,0.0,0.0,91,0.00,,,0.00,Wunderground v.1.15,2013-02-17 19:09:00,
2013-02-17 19:14:00,38.3,35.9,30.13,NE,46,0.0,0.0,91,0.00,,,0.00,Wunderground v.1.15,2013-02-17 19:14:00,
2013-02-17 19:24:00,38.1,36.0,30.12,East,90,0.0,0.0,92,0.00,,,0.00,Wunderground v.1.15,2013-02-17 19:24:00,
2013-02-17 19:29:00,38.1,36.0,30.12,ENE,67,0.0,0.0,92,0.00,,,0.00,Wunderground v.1.15,2013-02-17 19:29:00,
2013-02-17 19:39:00,38.0,36.2,30.13,ENE,66,0.0,0.0,93,0.00,,,0.00,Wunderground v.1.15,2013-02-17 19:39:00,
2013-02-17 19:44:00,38.1,36.3,30.13,ENE,63,0.0,0.0,93,0.00,,,0.00,Wunderground v.1.15,2013-02-17 19:44:00,
2013-02-17 19:54:00,38.1,36.3,30.12,NE,46,0.0,0.0,93,0.00,,,0.00,Wunderground v.1.15,2013-02-17 19:54:00,
2013-02-17 19:59:00,38.0,36.2,30.13,East,80,0.0,0.0,93,0.00,,,0.00,Wunderground v.1.15,2013-02-17 19:59:00,
2013-02-17 20:09:00,37.9,36.1,30.12,ENE,72,0.0,0.0,93,0.00,,,0.00,Wunderground v.1.15,2013-02-17 20:09:00,
2013-02-17 20:19:00,37.9,36.1,30.12,NE,53,0.0,0.0,93,0.00,,,0.00,Wunderground v.1.15,2013-02-17 20:19:00,
2013-02-17 20:24:00,37.8,35.7,30.12,ENE,78,0.0,0.0,92,0.00,,,0.00,Wunderground v.1.15,2013-02-17 20:24:00,
2013-02-17 20:29:00,37.8,35.7,30.13,East,80,0.0,0.0,92,0.00,,,0.00,Wunderground v.1.15,2013-02-17 20:29:00,
2013-02-17 20:39:00,37.8,35.7,30.13,East,82,0.0,0.0,92,0.00,,,0.00,Wunderground v.1.15,2013-02-17 20:39:00,
2013-02-17 20:44:00,37.8,36.0,30.13,East,81,0.0,0.0,93,0.00,,,0.00,Wunderground v.1.15,2013-02-17 20:44:00,
2013-02-17 20:54:00,37.9,36.1,30.13,East,90,0.0,0.0,93,0.00,,,0.00,Wunderground v.1.15,2013-02-17 20:54:00,
2013-02-17 20:59:00,38.0,35.9,30.13,NE,47,0.0,0.0,92,0.00,,,0.00,Wunderground v.1.15,2013-02-17 20:59:00,
2013-02-17 21:09:00,38.1,36.0,30.13,East,98,0.0,0.0,92,0.00,,,0.00,Wunderground v.1.15,2013-02-17 21:09:00,
2013-02-17 21:19:00,38.2,36.1,30.13,East,84,0.0,0.0,92,0.00,,,0.00,Wunderground v.1.15,2013-02-17 21:19:00,
2013-02-17 21:24:00,38.2,36.1,30.12,East,89,0.0,0.0,92,0.00,,,0.00,Wunderground v.1.15,2013-02-17 21:24:00,
2013-02-17 21:29:00,38.2,36.1,30.12,ENE,77,0.0,0.0,92,0.00,,,0.00,Wunderground v.1.15,2013-02-17 21:29:00,
2013-02-17 21:39:00,38.3,36.2,30.12,East,83,0.0,0.0,92,0.00,,,0.00,Wunderground v.1.15,2013-02-17 21:39:00,
2013-02-17 21:44:00,38.3,36.2,30.12,East,98,0.0,0.0,92,0.00,,,0.00,Wunderground v.1.15,2013-02-17 21:44:00,
2013-02-17 21:54:00,38.2,36.1,30.12,East,82,0.0,0.0,92,0.00,,,0.00,Wunderground v.1.15,2013-02-17 21:54:00,
2013-02-17 21:59:00,38.3,36.2,30.13,East,89,0.0,0.0,92,0.00,,,0.00,Wunderground v.1.15,2013-02-17 21:59:00,
2013-02-17 22:09:00,38.4,36.3,30.12,East,81,0.0,0.0,92,0.00,,,0.00,Wunderground v.1.15,2013-02-17 22:09:00,
2013-02-17 22:19:00,38.6,36.5,30.12,East,79,0.0,0.0,92,0.00,,,0.00,Wunderground v.1.15,2013-02-17 22:19:00,
2013-02-17 22:24:00,38.7,36.6,30.12,ESE,104,0.0,0.0,92,0.00,,,0.00,Wunderground v.1.15,2013-02-17 22:24:00,
2013-02-17 22:29:00,38.6,36.5,30.12,East,93,0.0,0.0,92,0.00,,,0.00,Wunderground v.1.15,2013-02-17 22:29:00,
2013-02-17 22:39:00,38.5,36.1,30.12,East,79,0.0,0.0,91,0.00,,,0.00,Wunderground v.1.15,2013-02-17 22:39:00,
2013-02-17 22:44:00,38.5,36.4,30.12,East,80,0.0,0.0,92,0.00,,,0.00,Wunderground v.1.15,2013-02-17 22:44:00,
2013-02-17 22:54:00,38.4,36.3,30.12,ENE,78,0.0,0.0,92,0.00,,,0.00,Wunderground v.1.15,2013-02-17 22:54:00,
2013-02-17 22:59:00,38.4,36.3,30.12,ENE,63,0.0,0.0,92,0.00,,,0.00,Wunderground v.1.15,2013-02-17 22:59:00,
2013-02-17 23:09:00,38.3,36.2,30.12,East,84,0.0,0.0,92,0.00,,,0.00,Wunderground v.1.15,2013-02-17 23:09:00,
2013-02-17 23:14:00,38.2,36.1,30.12,NE,55,0.0,0.0,92,0.00,,,0.00,Wunderground v.1.15,2013-02-17 23:14:00,
2013-02-17 23:24:00,37.9,35.8,30.12,East,90,0.0,0.0,92,0.00,,,0.00,Wunderground v.1.15,2013-02-17 23:24:00,
2013-02-17 23:29:00,37.8,35.7,30.12,ESE,121,0.0,0.0,92,0.00,,,0.00,Wunderground v.1.15,2013-02-17 23:29:00,
2013-02-17 23:39:00,37.6,35.8,30.12,ENE,70,0.0,0.0,93,0.00,,,0.00,Wunderground v.1.15,2013-02-17 23:39:00,
2013-02-17 23:49:00,37.4,35.6,30.12,East,100,0.0,0.0,93,0.00,,,0.00,Wunderground v.1.15,2013-02-17 23:49:00,
2013-02-17 23:54:00,37.4,35.6,30.12,ENE,65,0.0,0.0,93,0.00,,,0.00,Wunderground v.1.15,2013-02-17 23:54:00,
2013-02-17 23:59:00,37.4,35.6,30.12,East,86,0.0,0.0,93,0.00,,,0.00,Wunderground v.1.15,2013-02-17 23:59:00,